Tarsus, Turkey
Current Conditions -  °F | °C
As of 4:50 PM on Friday 24 Oct 2014 (Local Time) from LTAF Reporting Station
Broken Clouds Broken Clouds  
Wind Chill: 73°   Ceiling: 10000
Heat Index: 73°   Visibility: 6mi
Dew Point: 57°   Wind: 6mph
Humidity: 57%   Direction: 170°S
Pressure: 30"   Gusts: NA
Location:  36.92°N, 34.9°E
Report Text: LTAF 241350Z 17005KT 9999 SCT040 BKN100 23/14 Q1016 TEMPO -TSRA
Loading
Personal Weather Stations






























Interactive Weather Map
Tropical Storm Tracking
New forecast layout! Learn more

10-Day Weather Forecast

Advertisements
Track Severe Weather on mobile